createdAt,value
2022-08-29T00:00:17.943Z,21.40
2022-08-29T00:02:48.208Z,21.50
2022-08-29T00:05:16.853Z,21.20
2022-08-29T00:07:46.582Z,21.20
2022-08-29T00:10:15.216Z,21.00
2022-08-29T00:12:43.736Z,19.90
2022-08-29T00:15:14.046Z,19.80
2022-08-29T00:17:42.567Z,20.10
2022-08-29T00:20:13.255Z,20.30
2022-08-29T00:22:41.775Z,20.60
2022-08-29T00:25:13.636Z,20.80
2022-08-29T00:27:41.892Z,20.70
2022-08-29T00:30:16.742Z,20.80
2022-08-29T00:32:45.055Z,20.50
2022-08-29T00:35:15.710Z,20.40
2022-08-29T00:37:44.738Z,20.60
2022-08-29T00:40:17.659Z,20.70
2022-08-29T00:42:46.470Z,20.40
2022-08-29T00:45:17.779Z,20.30
2022-08-29T00:47:52.815Z,19.50
2022-08-29T00:50:27.902Z,19.90
2022-08-29T00:52:57.915Z,19.70
2022-08-29T00:55:32.647Z,19.90
2022-08-29T00:58:06.201Z,20.10
2022-08-29T01:00:34.817Z,20.30
2022-08-29T01:03:04.707Z,20.40
2022-08-29T01:05:33.492Z,20.50
2022-08-29T01:08:02.209Z,20.50
2022-08-29T01:10:49.588Z,20.50
2022-08-29T01:13:17.860Z,20.50
2022-08-29T01:15:47.712Z,20.60
2022-08-29T01:18:17.048Z,20.50
2022-08-29T01:20:52.108Z,20.50
2022-08-29T01:23:25.576Z,20.50
2022-08-29T01:25:56.372Z,20.50
2022-08-29T01:28:28.827Z,20.50
2022-08-29T01:31:02.992Z,20.50
2022-08-29T01:33:39.202Z,20.50
2022-08-29T01:36:10.673Z,20.50
2022-08-29T01:38:39.176Z,20.50
2022-08-29T01:41:10.548Z,20.50
2022-08-29T01:43:44.701Z,20.50
2022-08-29T01:46:19.956Z,20.50
2022-08-29T01:48:48.928Z,20.50
2022-08-29T01:51:17.966Z,20.40
2022-08-29T01:53:47.103Z,20.30
2022-08-29T01:56:19.656Z,20.30
2022-08-29T01:58:49.998Z,20.20
2022-08-29T02:01:20.483Z,20.20
2022-08-29T02:03:50.968Z,20.00
2022-08-29T02:06:19.227Z,19.90
2022-08-29T02:08:47.698Z,19.90
2022-08-29T02:11:18.671Z,19.90
2022-08-29T02:13:50.186Z,18.90
2022-08-29T02:16:19.050Z,19.00
2022-08-29T02:18:47.460Z,18.90
2022-08-29T02:21:18.992Z,18.40
2022-08-29T02:23:50.335Z,18.00
2022-08-29T02:26:22.469Z,17.80
2022-08-29T02:28:52.107Z,18.00
2022-08-29T02:31:21.886Z,18.10
2022-08-29T02:33:50.786Z,18.00
2022-08-29T02:36:19.878Z,17.70
2022-08-29T02:38:48.133Z,17.30
2022-08-29T02:41:16.640Z,17.30
2022-08-29T02:43:46.523Z,17.40
2022-08-29T02:46:17.553Z,17.40
2022-08-29T02:48:47.645Z,17.50
2022-08-29T02:51:31.514Z,17.30
2022-08-29T02:54:00.864Z,17.50
2022-08-29T02:56:30.028Z,17.80
2022-08-29T02:59:00.435Z,18.00
2022-08-29T03:01:31.327Z,18.30
2022-08-29T03:03:59.862Z,18.50
2022-08-29T03:06:28.260Z,18.70
2022-08-29T03:08:56.976Z,18.80
2022-08-29T03:11:25.222Z,18.90
2022-08-29T03:13:57.419Z,18.90
2022-08-29T03:16:27.818Z,18.80
2022-08-29T03:18:56.259Z,18.90
2022-08-29T03:21:27.067Z,18.60
2022-08-29T03:23:56.864Z,18.20
2022-08-29T03:26:26.260Z,18.40
2022-08-29T03:28:54.710Z,18.50
2022-08-29T03:31:23.291Z,18.90
2022-08-29T03:33:53.011Z,19.00
2022-08-29T03:36:21.316Z,19.10
2022-08-29T03:38:49.672Z,19.10
2022-08-29T03:41:23.074Z,19.20
2022-08-29T03:43:51.524Z,18.80
2022-08-29T03:46:19.838Z,18.80
2022-08-29T03:48:48.700Z,18.40
2022-08-29T03:51:19.646Z,18.20
2022-08-29T03:53:48.435Z,18.50
2022-08-29T03:56:18.752Z,18.50
2022-08-29T03:58:52.559Z,18.70
2022-08-29T04:01:22.619Z,18.90
2022-08-29T04:03:51.454Z,18.90
2022-08-29T04:06:21.927Z,18.30
2022-08-29T04:08:51.280Z,18.10
2022-08-29T04:11:20.973Z,18.50
2022-08-29T04:13:49.795Z,18.70
2022-08-29T04:16:20.611Z,18.70
2022-08-29T04:18:49.123Z,18.80
2022-08-29T04:21:18.938Z,18.90
2022-08-29T04:23:50.011Z,18.90
2022-08-29T04:26:37.493Z,18.90
2022-08-29T04:29:06.889Z,18.90
2022-08-29T04:31:36.689Z,18.80
2022-08-29T04:34:06.188Z,18.10
2022-08-29T04:36:35.225Z,17.40
2022-08-29T04:39:06.349Z,17.30
2022-08-29T04:41:35.466Z,17.50
2022-08-29T04:44:04.674Z,17.70
2022-08-29T04:46:33.417Z,18.00
2022-08-29T04:49:04.236Z,18.20
2022-08-29T04:51:34.384Z,18.40
2022-08-29T04:54:05.269Z,18.40
2022-08-29T04:56:34.758Z,18.50
2022-08-29T04:59:03.517Z,17.70
2022-08-29T05:01:31.890Z,17.90
2022-08-29T05:04:00.213Z,18.10
2022-08-29T05:06:28.876Z,18.30
2022-08-29T05:08:59.705Z,18.40
2022-08-29T05:11:32.554Z,18.40
2022-08-29T05:14:02.571Z,18.50
2022-08-29T05:16:35.045Z,18.40
2022-08-29T05:19:03.336Z,18.50
2022-08-29T05:21:35.649Z,18.50
2022-08-29T05:24:07.264Z,18.50
2022-08-29T05:26:39.591Z,18.50
2022-08-29T05:29:10.261Z,18.50
2022-08-29T05:31:41.308Z,18.50
2022-08-29T05:34:32.365Z,18.50
2022-08-29T05:36:59.079Z,18.50
2022-08-29T05:39:27.375Z,18.40
2022-08-29T05:41:58.023Z,17.80
2022-08-29T05:44:26.572Z,17.70
2022-08-29T05:46:54.833Z,17.90
2022-08-29T05:49:23.567Z,18.20
2022-08-29T05:51:54.607Z,18.30
2022-08-29T05:54:23.005Z,18.40
2022-08-29T05:56:51.446Z,18.30
2022-08-29T05:59:21.408Z,18.30
2022-08-29T06:01:49.744Z,18.30
2022-08-29T06:04:18.926Z,17.60
2022-08-29T06:06:47.269Z,17.20
2022-08-29T06:09:15.740Z,17.30
2022-08-29T06:11:47.771Z,17.20
2022-08-29T06:14:16.987Z,17.20
2022-08-29T06:16:47.167Z,17.20
2022-08-29T06:19:16.101Z,17.10
2022-08-29T06:21:44.404Z,17.30
2022-08-29T06:24:12.843Z,16.90
2022-08-29T06:26:41.071Z,16.80
2022-08-29T06:29:10.603Z,16.80
2022-08-29T06:31:39.335Z,17.10
2022-08-29T06:34:10.325Z,17.20
2022-08-29T06:36:39.314Z,17.20
2022-08-29T06:39:09.956Z,17.10
2022-08-29T06:41:40.448Z,16.90
2022-08-29T06:44:09.249Z,16.70
2022-08-29T06:46:39.840Z,16.70
2022-08-29T06:49:11.993Z,16.90
2022-08-29T06:51:42.384Z,17.10
2022-08-29T06:54:12.383Z,17.00
2022-08-29T06:56:42.483Z,17.00
2022-08-29T06:59:11.377Z,17.10
2022-08-29T07:01:42.478Z,17.10
2022-08-29T07:04:14.289Z,16.90
2022-08-29T07:06:44.677Z,17.10
2022-08-29T07:09:14.427Z,17.00
2022-08-29T07:11:43.728Z,17.10
2022-08-29T07:14:12.918Z,17.10
2022-08-29T07:16:42.907Z,17.10
2022-08-29T07:19:12.640Z,17.30
2022-08-29T07:21:41.209Z,17.30
2022-08-29T07:24:09.687Z,17.50
2022-08-29T07:26:42.143Z,17.80
2022-08-29T07:29:13.422Z,17.80
2022-08-29T07:31:41.908Z,17.50
2022-08-29T07:34:10.582Z,17.50
2022-08-29T07:36:40.763Z,17.60
2022-08-29T07:39:12.083Z,17.70
2022-08-29T07:41:41.582Z,17.90
2022-08-29T07:44:10.644Z,17.90
2022-08-29T07:46:39.286Z,18.00
2022-08-29T07:49:07.967Z,18.10
2022-08-29T07:51:36.881Z,18.10
2022-08-29T07:54:08.076Z,18.40
2022-08-29T07:56:41.786Z,18.40
2022-08-29T07:59:10.998Z,18.40
2022-08-29T08:01:40.255Z,18.40
2022-08-29T08:04:09.098Z,18.50
2022-08-29T08:06:37.926Z,18.60
2022-08-29T08:09:10.099Z,18.60
2022-08-29T08:11:42.021Z,18.70
2022-08-29T08:14:10.423Z,18.80
2022-08-29T08:16:39.065Z,18.80
2022-08-29T08:19:13.485Z,19.00
2022-08-29T08:21:46.950Z,19.10
2022-08-29T08:24:20.305Z,19.20
2022-08-29T08:26:49.154Z,19.30
2022-08-29T08:29:18.067Z,19.30
2022-08-29T08:31:49.546Z,19.40
2022-08-29T08:34:18.678Z,19.40
2022-08-29T08:36:47.301Z,19.50
2022-08-29T08:39:16.007Z,19.70
2022-08-29T08:41:55.754Z,19.70
2022-08-29T08:44:53.542Z,19.80
2022-08-29T08:47:27.333Z,19.80
2022-08-29T08:50:00.037Z,19.80
2022-08-29T08:52:37.404Z,19.80
2022-08-29T08:55:12.851Z,19.90
2022-08-29T08:57:48.864Z,20.00
2022-08-29T09:00:17.320Z,20.10
2022-08-29T09:02:56.235Z,20.20
2022-08-29T09:05:39.459Z,20.40
2022-08-29T09:08:20.372Z,20.30
2022-08-29T09:10:58.938Z,20.40
2022-08-29T09:13:54.252Z,20.60
2022-08-29T09:16:27.543Z,20.60
2022-08-29T09:18:59.986Z,20.70
2022-08-29T09:21:44.406Z,20.60
2022-08-29T09:24:21.843Z,20.70
2022-08-29T09:26:50.774Z,20.90
2022-08-29T09:29:21.306Z,21.10
2022-08-29T09:32:07.489Z,20.90
2022-08-29T09:35:06.792Z,21.00
2022-08-29T09:37:31.145Z,21.10
2022-08-29T09:40:02.891Z,21.10
2022-08-29T09:42:34.123Z,21.10
2022-08-29T09:45:09.576Z,21.30
2022-08-29T09:47:37.888Z,21.30
2022-08-29T09:50:13.083Z,21.50
2022-08-29T09:52:53.154Z,21.60
2022-08-29T09:55:26.112Z,21.60
2022-08-29T09:58:00.535Z,21.90
2022-08-29T10:00:34.103Z,21.90
2022-08-29T10:03:04.488Z,22.10
2022-08-29T10:05:41.609Z,22.20
2022-08-29T10:08:29.498Z,22.20
2022-08-29T10:11:00.714Z,22.30
2022-08-29T10:13:36.527Z,22.50
2022-08-29T10:16:14.826Z,22.70
2022-08-29T10:18:48.227Z,23.00
2022-08-29T10:21:35.217Z,22.90
2022-08-29T10:24:19.541Z,22.90
2022-08-29T10:26:56.733Z,23.20
2022-08-29T10:29:40.776Z,23.30
2022-08-29T10:32:22.737Z,23.40
2022-08-29T10:35:03.202Z,23.40
2022-08-29T10:37:43.923Z,23.70
2022-08-29T10:40:20.269Z,23.80
2022-08-29T10:42:50.387Z,23.90
2022-08-29T10:45:26.847Z,24.00
2022-08-29T10:48:05.592Z,23.90
2022-08-29T10:50:44.497Z,23.80
2022-08-29T10:53:17.882Z,23.90
2022-08-29T10:55:54.846Z,24.20
2022-08-29T10:58:36.814Z,24.20
2022-08-29T11:01:11.927Z,24.20
2022-08-29T11:03:48.566Z,24.40
2022-08-29T11:06:22.751Z,24.50
2022-08-29T11:09:01.132Z,24.40
2022-08-29T11:11:32.194Z,24.60
2022-08-29T11:14:05.820Z,24.70
2022-08-29T11:16:41.331Z,24.80
2022-08-29T11:19:24.858Z,24.80
2022-08-29T11:21:56.948Z,24.90
2022-08-29T11:24:34.199Z,24.80
2022-08-29T11:27:11.230Z,25.00
2022-08-29T11:29:47.022Z,25.00
2022-08-29T11:32:24.833Z,25.00
2022-08-29T11:35:07.594Z,25.00
2022-08-29T11:38:14.320Z,25.20
2022-08-29T11:43:50.488Z,25.30
2022-08-29T11:46:36.681Z,25.10
2022-08-29T11:49:29.480Z,25.50
2022-08-29T11:52:11.481Z,25.60
2022-08-29T11:55:16.416Z,25.70
2022-08-29T11:58:01.908Z,25.90
2022-08-29T12:00:52.846Z,25.90
2022-08-29T12:03:55.199Z,26.00
2022-08-29T12:06:48.687Z,25.90
2022-08-29T12:09:52.871Z,26.00
2022-08-29T12:12:48.124Z,26.10
2022-08-29T12:15:55.318Z,26.10
2022-08-29T12:18:38.963Z,26.10
2022-08-29T12:21:34.776Z,26.10
2022-08-29T12:24:03.871Z,26.20
2022-08-29T12:26:43.610Z,26.30
2022-08-29T12:29:20.220Z,26.20
2022-08-29T12:32:22.762Z,26.20
2022-08-29T12:35:13.846Z,26.40
2022-08-29T12:37:57.158Z,26.40
2022-08-29T12:40:39.739Z,26.50
2022-08-29T12:43:25.400Z,26.50
2022-08-29T12:45:56.341Z,26.50
2022-08-29T12:48:28.050Z,26.60
2022-08-29T12:50:56.268Z,26.80
2022-08-29T12:53:27.971Z,26.90
2022-08-29T12:55:58.615Z,26.90
2022-08-29T12:58:41.106Z,27.00
2022-08-29T13:01:22.665Z,26.90
2022-08-29T13:04:03.615Z,27.10
2022-08-29T13:06:33.387Z,27.10
2022-08-29T13:09:02.207Z,27.10
2022-08-29T13:11:33.651Z,27.00
2022-08-29T13:14:10.763Z,27.00
2022-08-29T13:16:41.311Z,27.00
2022-08-29T13:19:19.999Z,27.30
2022-08-29T13:21:48.303Z,27.30
2022-08-29T13:24:20.343Z,27.20
2022-08-29T13:27:04.311Z,27.40
2022-08-29T13:29:38.449Z,27.60
2022-08-29T13:32:18.798Z,27.40
2022-08-29T13:35:01.646Z,27.40
2022-08-29T13:37:32.456Z,27.60
2022-08-29T13:40:30.765Z,27.60
2022-08-29T13:43:00.475Z,27.50
2022-08-29T13:45:28.853Z,27.30
2022-08-29T13:48:12.598Z,27.40
2022-08-29T13:50:41.260Z,27.50
2022-08-29T13:53:09.569Z,27.60
2022-08-29T13:55:37.905Z,27.80
2022-08-29T13:58:06.333Z,27.80
2022-08-29T14:00:35.505Z,27.70
2022-08-29T14:03:09.413Z,27.70
2022-08-29T14:05:38.768Z,27.70
2022-08-29T14:08:07.487Z,27.70
2022-08-29T14:10:35.827Z,27.80
2022-08-29T14:13:05.305Z,27.80
2022-08-29T14:15:34.063Z,27.90
2022-08-29T14:18:02.262Z,27.80
2022-08-29T14:20:31.919Z,27.80
2022-08-29T14:23:00.153Z,27.80
2022-08-29T14:25:28.627Z,27.70
2022-08-29T14:27:56.975Z,27.80
2022-08-29T14:30:25.920Z,27.80
2022-08-29T14:32:54.086Z,27.90
2022-08-29T14:35:26.594Z,28.00
2022-08-29T14:37:57.938Z,28.10
2022-08-29T14:40:29.104Z,27.90
2022-08-29T14:42:58.076Z,27.90
2022-08-29T14:45:26.499Z,27.90
2022-08-29T14:47:54.705Z,28.00
2022-08-29T14:50:23.911Z,28.10
2022-08-29T14:52:52.258Z,28.00
2022-08-29T14:55:22.780Z,28.00
2022-08-29T14:57:51.229Z,27.90
2022-08-29T15:00:22.663Z,28.00
2022-08-29T15:02:51.425Z,27.90
2022-08-29T15:05:19.963Z,27.90
2022-08-29T15:07:48.470Z,27.70
2022-08-29T15:10:19.051Z,27.80
2022-08-29T15:12:48.875Z,27.90
2022-08-29T15:15:17.461Z,27.90
2022-08-29T15:17:46.331Z,28.00
2022-08-29T15:20:35.638Z,28.00
2022-08-29T15:23:04.433Z,28.00
2022-08-29T15:25:32.984Z,28.00
2022-08-29T15:28:02.831Z,28.00
2022-08-29T15:30:31.083Z,28.10
2022-08-29T15:32:59.308Z,28.10
2022-08-29T15:35:27.664Z,28.10
2022-08-29T15:37:55.989Z,28.00
2022-08-29T15:40:25.029Z,28.00
2022-08-29T15:42:53.233Z,27.80
2022-08-29T15:45:23.211Z,27.80
2022-08-29T15:47:54.654Z,27.70
2022-08-29T15:50:31.992Z,27.70
2022-08-29T15:53:00.723Z,27.70
2022-08-29T15:55:28.879Z,27.60
2022-08-29T15:57:57.337Z,27.70
2022-08-29T16:00:30.217Z,27.70
2022-08-29T16:03:01.738Z,27.80
2022-08-29T16:05:30.452Z,27.80
2022-08-29T16:07:58.726Z,27.70
2022-08-29T16:10:26.998Z,27.70
2022-08-29T16:12:55.195Z,27.70
2022-08-29T16:15:23.565Z,27.70
2022-08-29T16:17:53.649Z,27.70
2022-08-29T16:20:22.054Z,27.60
2022-08-29T16:22:50.391Z,27.60
2022-08-29T16:25:18.751Z,27.60
2022-08-29T16:27:47.026Z,27.60
2022-08-29T16:30:16.302Z,27.60
2022-08-29T16:32:44.794Z,27.60
2022-08-29T16:35:16.315Z,27.70
2022-08-29T16:37:44.968Z,27.60
2022-08-29T16:40:16.912Z,27.50
2022-08-29T16:42:55.506Z,27.40
2022-08-29T16:45:24.641Z,27.40
2022-08-29T16:47:57.297Z,27.40
2022-08-29T16:50:28.203Z,27.40
2022-08-29T16:52:56.775Z,27.40
2022-08-29T16:55:26.209Z,27.40
2022-08-29T16:58:12.173Z,27.40
2022-08-29T17:00:41.302Z,27.40
2022-08-29T17:03:09.685Z,27.40
2022-08-29T17:05:39.287Z,27.40
2022-08-29T17:08:06.371Z,27.30
2022-08-29T17:10:33.504Z,27.30
2022-08-29T17:13:00.681Z,27.20
2022-08-29T17:15:27.904Z,27.20
2022-08-29T17:17:56.265Z,27.20
2022-08-29T17:20:24.943Z,27.20
2022-08-29T17:22:54.958Z,27.10
2022-08-29T17:25:24.235Z,27.10
2022-08-29T17:28:16.618Z,27.00
2022-08-29T17:30:41.215Z,27.00
2022-08-29T17:33:10.749Z,26.90
2022-08-29T17:35:39.879Z,26.90
2022-08-29T17:38:09.835Z,26.80
2022-08-29T17:40:40.117Z,26.70
2022-08-29T17:43:10.632Z,26.60
2022-08-29T17:45:40.529Z,26.60
2022-08-29T17:48:08.920Z,26.60
2022-08-29T17:50:37.647Z,26.50
2022-08-29T17:53:06.486Z,26.50
2022-08-29T17:55:36.070Z,26.40
2022-08-29T17:58:04.763Z,26.40
2022-08-29T18:00:33.430Z,26.40
2022-08-29T18:03:01.769Z,26.40
2022-08-29T18:05:29.999Z,26.40
2022-08-29T18:07:58.264Z,26.50
2022-08-29T18:10:27.146Z,26.50
2022-08-29T18:12:56.861Z,26.60
2022-08-29T18:15:25.379Z,26.60
2022-08-29T18:17:54.064Z,26.80
2022-08-29T18:20:23.451Z,26.80
2022-08-29T18:22:51.678Z,26.80
2022-08-29T18:25:22.651Z,26.50
2022-08-29T18:27:51.572Z,26.40
2022-08-29T18:30:21.465Z,26.50
2022-08-29T18:32:50.123Z,26.60
2022-08-29T18:35:18.722Z,26.70
2022-08-29T18:37:47.050Z,26.70
2022-08-29T18:40:15.482Z,26.70
2022-08-29T18:42:44.311Z,26.60
2022-08-29T18:45:13.367Z,26.60
2022-08-29T18:47:43.368Z,26.60
2022-08-29T18:50:29.838Z,26.50
2022-08-29T18:52:58.109Z,26.50
2022-08-29T18:55:26.783Z,26.50
2022-08-29T18:57:55.636Z,26.40
2022-08-29T19:00:25.030Z,26.40
2022-08-29T19:02:55.259Z,26.30
2022-08-29T19:05:24.969Z,26.20
2022-08-29T19:07:53.751Z,26.20
2022-08-29T19:10:23.027Z,26.10
2022-08-29T19:12:51.195Z,26.10
2022-08-29T19:15:20.680Z,25.90
2022-08-29T19:17:49.143Z,26.00
2022-08-29T19:20:40.379Z,25.90
2022-08-29T19:23:08.900Z,25.90
2022-08-29T19:25:38.154Z,25.90
2022-08-29T19:28:07.251Z,25.80
2022-08-29T19:30:38.310Z,25.80
2022-08-29T19:33:06.821Z,25.80
2022-08-29T19:35:37.994Z,25.60
2022-08-29T19:38:06.892Z,25.20
2022-08-29T19:40:39.105Z,25.20
2022-08-29T19:43:13.440Z,25.30
2022-08-29T19:45:44.504Z,25.40
2022-08-29T19:48:15.146Z,25.50
2022-08-29T19:50:47.413Z,25.40
2022-08-29T19:53:26.100Z,25.40
2022-08-29T19:55:55.311Z,25.40
2022-08-29T19:58:31.285Z,25.30
2022-08-29T20:01:01.654Z,24.30
2022-08-29T20:03:30.343Z,23.80
2022-08-29T20:06:00.514Z,23.60
2022-08-29T20:08:31.307Z,24.00
2022-08-29T20:10:59.887Z,24.30
2022-08-29T20:13:32.845Z,24.50
2022-08-29T20:16:04.422Z,24.40
2022-08-29T20:18:33.049Z,24.70
2022-08-29T20:21:03.136Z,24.80
2022-08-29T20:23:31.714Z,24.60
2022-08-29T20:26:01.784Z,24.70
2022-08-29T20:28:31.708Z,24.70
2022-08-29T20:31:00.678Z,23.90
2022-08-29T20:33:29.144Z,24.10
2022-08-29T20:36:14.579Z,24.30
2022-08-29T20:38:44.202Z,24.40
2022-08-29T20:41:12.405Z,24.50
2022-08-29T20:43:40.867Z,24.50
2022-08-29T20:46:10.471Z,24.40
2022-08-29T20:48:39.395Z,24.40
2022-08-29T20:51:10.059Z,24.40
2022-08-29T20:53:39.507Z,24.40
2022-08-29T20:56:09.819Z,24.40
2022-08-29T20:58:38.006Z,24.10
2022-08-29T21:01:06.522Z,24.20
2022-08-29T21:03:52.790Z,24.20
2022-08-29T21:06:21.838Z,24.20
2022-08-29T21:08:50.408Z,24.10
2022-08-29T21:11:20.801Z,24.10
2022-08-29T21:13:53.176Z,24.10
2022-08-29T21:16:22.037Z,24.00
2022-08-29T21:18:52.551Z,24.00
2022-08-29T21:21:24.689Z,24.00
2022-08-29T21:23:54.118Z,23.90
2022-08-29T21:26:23.783Z,23.80
2022-08-29T21:28:52.392Z,23.80
2022-08-29T21:31:23.542Z,23.70
2022-08-29T21:33:51.802Z,23.70
2022-08-29T21:36:22.767Z,23.70
2022-08-29T21:38:55.320Z,23.60
2022-08-29T21:41:26.555Z,23.50
2022-08-29T21:43:55.811Z,23.60
2022-08-29T21:46:26.603Z,23.50
2022-08-29T21:48:56.881Z,23.50
2022-08-29T21:51:26.066Z,23.30
2022-08-29T21:53:56.421Z,22.90
2022-08-29T21:56:27.872Z,22.80
2022-08-29T21:58:57.224Z,22.80
2022-08-29T22:01:30.076Z,22.90
2022-08-29T22:03:59.401Z,22.50
2022-08-29T22:06:28.914Z,22.80
2022-08-29T22:08:57.765Z,22.80
2022-08-29T22:11:37.578Z,23.00
2022-08-29T22:14:06.954Z,22.90
2022-08-29T22:16:34.738Z,22.40
2022-08-29T22:19:05.681Z,21.90
2022-08-29T22:21:36.180Z,22.00
2022-08-29T22:24:05.152Z,22.30
2022-08-29T22:26:35.442Z,22.60
2022-08-29T22:29:04.683Z,22.70
2022-08-29T22:31:33.097Z,22.80
2022-08-29T22:34:02.020Z,22.80
2022-08-29T22:36:34.235Z,22.80
2022-08-29T22:39:02.584Z,22.80
2022-08-29T22:41:31.249Z,22.80
2022-08-29T22:44:52.692Z,22.80
2022-08-29T22:46:52.345Z,22.70
2022-08-29T22:49:20.636Z,22.70
2022-08-29T22:51:49.264Z,22.70
2022-08-29T22:54:35.038Z,22.70
2022-08-29T22:57:04.620Z,22.70
2022-08-29T22:59:34.760Z,22.60
2022-08-29T23:02:03.266Z,22.60
2022-08-29T23:04:31.776Z,22.60
2022-08-29T23:07:00.281Z,22.50
2022-08-29T23:09:29.962Z,22.50
2022-08-29T23:12:04.150Z,22.40
2022-08-29T23:14:35.799Z,22.40
2022-08-29T23:17:04.577Z,22.40
2022-08-29T23:19:33.188Z,22.30
2022-08-29T23:22:02.299Z,22.30
2022-08-29T23:24:30.879Z,22.20
2022-08-29T23:26:59.565Z,22.20
2022-08-29T23:29:29.768Z,22.20
2022-08-29T23:31:59.455Z,22.20
2022-08-29T23:34:27.707Z,21.70
2022-08-29T23:36:55.835Z,21.60
2022-08-29T23:39:24.232Z,21.70
2022-08-29T23:41:52.931Z,21.90
2022-08-29T23:44:21.184Z,21.90
2022-08-29T23:46:49.454Z,21.90
2022-08-29T23:49:19.451Z,21.90
2022-08-29T23:51:48.196Z,21.90
2022-08-29T23:54:16.475Z,21.90
2022-08-29T23:56:44.741Z,21.90
2022-08-29T23:59:33.718Z,21.80
